KBGD/BGD METAR and TAF weather

Enter ICAO airport designator
Station Type Date Time Source
KBGD METAR 2019/02/23 16:51 UTC NOAA

KBGD 231651Z AUTO 26013G23KT 10SM BKN021 BKN080 06/01 A2957 RMK AO2 PRESRR SLP010 T00610011


Station Type Date Time Source
KBGD Decoded METAR 2019/02/23 16:51 UTC NOAA

BORGER HUTCHINSON CO AIRPORT , TX, United States (KBGD) 35-42N 101-24W 927M
Feb 23, 2019 - 11:51 AM EST / 2019.02.23 1651 UTC
Wind: from the W (260 degrees) at 15 MPH (13 KT) gusting to 26 MPH (23 KT):0
Visibility: 10 mile(s):0
Sky conditions: mostly cloudy
Temperature: 43.0 F (6.1 C)
Dew Point: 34.0 F (1.1 C)
Relative Humidity: 70%
Pressure (altimeter): 29.57 in. Hg (1001 hPa)
Pressure tendency: rising rapidly
ob: KBGD 231651Z AUTO 26013G23KT 10SM BKN021 BKN080 06/01 A2957 RMK AO2 PRESRR SLP010 T00610011
cycle: 17

Station Type Date Time Source
KBGD TAF UTC NOAA

Error!


Example: see airport list